Time;durP1;ratioP1;P1;durP2;ratioP2;P2;SDS_P1;SDS_P2;PMS_P1;PMS_P2;Temp;Humidity;BMP_temperature;BMP_pressure;BME280_temperature;BME280_humidity;BME280_pressure;Samples;Min_cycle;Max_cycle;Signal;HPM_P1;HPM_P2
2023/10/20 00:00:47;;;;;;;33.72;15.27;;;9.50;99.90;;;;;;5052092;28;20490;-70
2023/10/20 00:03:13;;;;;;;29.55;14.98;;;9.60;99.90;;;;;;5052748;28;20475;-70
2023/10/20 00:05:41;;;;;;;27.70;13.32;;;9.50;99.90;;;;;;5053904;28;20051;-70
2023/10/20 00:08:07;;;;;;;;;;;9.60;99.90;;;;;;5050645;28;20033;-70
2023/10/20 00:10:35;;;;;;;32.88;14.48;;;9.60;99.90;;;;;;5049399;28;19917;-70
2023/10/20 00:13:05;;;;;;;30.88;15.30;;;9.50;99.90;;;;;;5046095;28;20029;-70
2023/10/20 00:15:33;;;;;;;30.08;15.57;;;9.40;99.90;;;;;;5052333;28;20062;-70
2023/10/20 00:17:59;;;;;;;34.17;16.30;;;9.40;99.90;;;;;;5050705;28;20700;-70
2023/10/20 00:20:28;;;;;;;34.83;16.45;;;9.40;99.90;;;;;;5049876;28;20083;-70
2023/10/20 00:22:56;;;;;;;37.28;15.90;;;9.40;99.90;;;;;;5045177;28;20114;-70
2023/10/20 00:25:22;;;;;;;37.30;16.85;;;9.30;99.90;;;;;;5049194;28;20028;-70
2023/10/20 00:27:48;;;;;;;36.33;16.20;;;9.50;99.90;;;;;;5053038;28;20124;-70
2023/10/20 00:30:14;;;;;;;33.33;17.15;;;9.40;99.90;;;;;;5059952;28;20170;-70
2023/10/20 00:32:40;;;;;;;35.28;15.98;;;9.40;99.90;;;;;;5055233;28;20025;-70
2023/10/20 00:35:13;;;;;;;40.05;16.92;;;9.50;99.90;;;;;;5050461;28;20040;-70
2023/10/20 00:37:39;;;;;;;34.65;17.08;;;9.40;99.90;;;;;;5047311;28;20094;-70
2023/10/20 00:40:09;;;;;;;38.15;18.42;;;9.50;99.90;;;;;;5049719;28;20056;-70
2023/10/20 00:42:40;;;;;;;34.40;17.13;;;9.40;99.90;;;;;;5041244;28;20032;-70
2023/10/20 00:45:09;;;;;;;37.20;16.48;;;9.40;99.90;;;;;;5048742;28;20029;-70
2023/10/20 00:47:36;;;;;;;34.88;16.02;;;9.40;99.90;;;;;;5044845;28;20034;-70
2023/10/20 00:50:02;;;;;;;34.15;17.45;;;9.40;99.90;;;;;;5047051;28;20029;-70
2023/10/20 00:52:29;;;;;;;35.03;16.55;;;9.40;99.90;;;;;;5044707;28;20032;-70
2023/10/20 00:54:55;;;;;;;35.83;17.17;;;9.40;99.90;;;;;;5058707;28;21235;-70
2023/10/20 00:57:21;;;;;;;34.72;17.13;;;9.40;99.90;;;;;;5061894;28;20016;-70
2023/10/20 00:59:52;;;;;;;35.60;16.40;;;9.50;99.90;;;;;;5053560;28;20036;-70
2023/10/20 01:02:20;;;;;;;34.45;15.30;;;9.40;99.90;;;;;;5054744;28;20029;-70
2023/10/20 01:04:48;;;;;;;;;;;9.40;99.90;;;;;;5047337;28;20043;-70
2023/10/20 01:07:14;;;;;;;38.40;17.08;;;9.40;99.90;;;;;;5060677;28;20004;-70
2023/10/20 01:09:44;;;;;;;35.92;16.42;;;9.40;99.90;;;;;;5053062;28;20238;-70
2023/10/20 01:12:10;;;;;;;36.35;15.02;;;9.40;99.90;;;;;;5047527;28;20024;-70
2023/10/20 01:14:38;;;;;;;30.48;15.23;;;9.40;99.90;;;;;;5050385;28;20035;-70
2023/10/20 01:17:07;;;;;;;32.42;15.02;;;9.40;99.90;;;;;;5048643;28;20032;-70
2023/10/20 01:19:36;;;;;;;31.38;15.35;;;9.50;99.90;;;;;;5049881;28;20020;-70
2023/10/20 01:22:03;;;;;;;28.92;14.13;;;9.40;99.90;;;;;;5051896;28;20032;-70
2023/10/20 01:24:29;;;;;;;29.95;14.15;;;9.40;99.90;;;;;;5051292;28;20029;-70
2023/10/20 01:26:55;;;;;;;34.38;14.55;;;9.40;99.90;;;;;;5051129;28;20066;-70
2023/10/20 01:29:23;;;;;;;28.23;14.02;;;9.40;99.90;;;;;;5056318;28;20032;-70
2023/10/20 01:31:51;;;;;;;30.90;14.82;;;9.40;99.90;;;;;;5050306;28;20029;-69
2023/10/20 01:34:17;;;;;;;31.00;14.55;;;9.50;99.90;;;;;;5059226;28;20036;-70
2023/10/20 01:36:43;;;;;;;31.00;15.20;;;9.40;99.90;;;;;;5046532;28;20379;-70
2023/10/20 01:39:08;;;;;;;31.30;14.45;;;9.40;99.90;;;;;;5049876;28;20021;-70
2023/10/20 01:41:36;;;;;;;32.17;13.88;;;9.40;99.90;;;;;;5053458;28;20097;-70
2023/10/20 01:44:02;;;;;;;;;;;9.30;99.90;;;;;;5051806;28;20095;-70
2023/10/20 01:46:28;;;;;;;29.23;13.73;;;9.30;99.90;;;;;;5049123;28;19995;-70
2023/10/20 01:48:54;;;;;;;27.67;13.02;;;9.40;99.90;;;;;;5052572;28;20024;-70
2023/10/20 01:51:22;;;;;;;29.80;13.40;;;9.40;99.90;;;;;;5047393;28;20378;-70
2023/10/20 01:53:48;;;;;;;22.67;12.40;;;9.40;99.90;;;;;;5052274;28;20122;-69
2023/10/20 01:56:15;;;;;;;30.75;13.00;;;9.30;99.90;;;;;;5051356;28;20029;-69
2023/10/20 01:58:41;;;;;;;32.60;13.25;;;9.40;99.90;;;;;;5052828;28;20433;-70
2023/10/20 02:01:09;;;;;;;28.35;13.18;;;9.30;99.90;;;;;;5045529;28;20037;-70
2023/10/20 02:03:36;;;;;;;31.83;12.68;;;9.40;99.90;;;;;;5047440;28;20501;-70
2023/10/20 02:06:04;;;;;;;28.08;12.98;;;9.40;99.90;;;;;;5048880;28;20024;-70
2023/10/20 02:08:31;;;;;;;28.05;12.20;;;9.30;99.90;;;;;;5054113;28;20116;-70
2023/10/20 02:11:02;;;;;;;25.20;11.82;;;9.30;99.90;;;;;;5047762;28;20170;-69
2023/10/20 02:13:30;;;;;;;24.80;11.82;;;9.40;99.90;;;;;;5051524;28;20841;-70
2023/10/20 02:15:55;;;;;;;25.00;11.55;;;9.40;99.90;;;;;;5051437;28;20112;-70
2023/10/20 02:18:21;;;;;;;23.00;10.85;;;9.30;99.90;;;;;;5052554;28;20344;-70
2023/10/20 02:20:56;;;;;;;21.38;11.52;;;9.30;99.90;;;;;;5046329;28;20064;-70
2023/10/20 02:23:22;;;;;;;24.58;10.85;;;9.30;99.90;;;;;;5050411;28;20518;-70
2023/10/20 02:25:59;;;;;;;19.45;9.95;;;9.30;99.90;;;;;;5052723;28;20076;-70
2023/10/20 02:28:27;;;;;;;18.20;9.40;;;9.30;99.90;;;;;;5046166;28;20056;-74
2023/10/20 02:30:54;;;;;;;;;;;9.20;99.90;;;;;;5047168;28;20033;-73
2023/10/20 02:33:19;;;;;;;20.17;9.90;;;9.20;99.90;;;;;;5047003;28;19916;-73
2023/10/20 02:35:45;;;;;;;21.48;9.73;;;9.20;99.90;;;;;;5047057;28;20033;-73
2023/10/20 02:38:10;;;;;;;18.73;9.27;;;9.20;99.90;;;;;;5044225;28;20108;-73
2023/10/20 02:40:36;;;;;;;19.20;10.38;;;9.20;99.90;;;;;;5047064;28;20029;-73
2023/10/20 02:43:02;;;;;;;27.20;10.60;;;9.10;99.90;;;;;;5051724;28;20022;-73
2023/10/20 02:45:27;;;;;;;25.58;11.75;;;9.20;99.90;;;;;;5049908;28;20653;-73
2023/10/20 02:47:53;;;;;;;19.35;10.10;;;9.20;99.90;;;;;;5055560;28;20021;-73
2023/10/20 02:50:21;;;;;;;24.08;11.00;;;9.20;99.90;;;;;;5054120;28;20038;-73
2023/10/20 02:52:46;;;;;;;;;;;9.20;99.90;;;;;;5047671;28;20025;-73
2023/10/20 02:55:12;;;;;;;23.50;11.02;;;9.30;99.90;;;;;;5046314;28;19920;-73
2023/10/20 02:57:38;;;;;;;26.95;10.80;;;9.20;99.90;;;;;;5056052;28;20498;-73
2023/10/20 03:00:09;;;;;;;22.30;10.45;;;9.20;99.90;;;;;;5058963;28;20075;-73
2023/10/20 03:02:36;;;;;;;22.92;10.60;;;9.20;99.90;;;;;;5061155;28;20013;-73
2023/10/20 03:05:02;;;;;;;24.20;11.52;;;9.20;99.90;;;;;;5054130;28;20029;-73
2023/10/20 03:07:27;;;;;;;23.90;10.02;;;9.20;99.90;;;;;;5048569;28;20395;-73
2023/10/20 03:09:54;;;;;;;23.73;11.07;;;9.10;99.90;;;;;;5055056;28;20040;-73
2023/10/20 03:12:20;;;;;;;24.50;11.20;;;9.10;99.90;;;;;;5055498;28;20067;-72
2023/10/20 03:14:46;;;;;;;26.02;10.57;;;9.10;99.90;;;;;;5052094;28;20032;-74
2023/10/20 03:17:14;;;;;;;21.90;10.85;;;9.10;99.90;;;;;;5057523;28;20025;-73
2023/10/20 03:19:42;;;;;;;20.55;10.50;;;9.10;99.90;;;;;;5049811;28;20093;-73
2023/10/20 03:22:08;;;;;;;28.17;12.00;;;9.00;99.90;;;;;;5057777;28;20560;-73
2023/10/20 03:24:33;;;;;;;27.65;11.27;;;9.30;99.90;;;;;;5053485;28;20029;-73
2023/10/20 03:26:59;;;;;;;22.38;10.63;;;9.10;99.90;;;;;;5045215;28;20052;-73
2023/10/20 03:29:25;;;;;;;25.75;11.85;;;9.10;99.90;;;;;;5057007;28;20025;-72
2023/10/20 03:31:51;;;;;;;22.85;11.27;;;9.10;99.90;;;;;;5060847;28;20043;-73
2023/10/20 03:34:16;;;;;;;25.85;11.30;;;9.20;99.90;;;;;;5061451;28;20623;-73
2023/10/20 03:36:42;;;;;;;23.58;11.27;;;9.10;99.90;;;;;;5059644;28;20025;-73
2023/10/20 03:39:33;;;;;;;24.27;11.48;;;9.10;99.90;;;;;;5054652;28;20637;-72
2023/10/20 03:41:55;;;;;;;31.17;12.27;;;9.10;99.90;;;;;;5052874;28;20033;-73
2023/10/20 03:44:22;;;;;;;30.80;12.38;;;9.10;99.90;;;;;;5047978;28;20100;-72
2023/10/20 03:46:56;;;;;;;26.35;11.77;;;9.20;99.90;;;;;;5058416;28;20032;-73
2023/10/20 03:49:22;;;;;;;32.35;13.20;;;9.10;99.90;;;;;;5043833;28;20021;-73
2023/10/20 03:51:51;;;;;;;24.50;12.23;;;9.20;99.90;;;;;;5052162;28;20033;-73
2023/10/20 03:54:18;;;;;;;23.02;11.70;;;9.10;99.90;;;;;;5050501;28;20079;-73
2023/10/20 03:56:44;;;;;;;27.67;11.57;;;9.10;99.90;;;;;;5054476;28;20017;-73
2023/10/20 03:59:11;;;;;;;28.38;12.25;;;9.20;99.90;;;;;;5049535;28;20087;-73
2023/10/20 04:01:38;;;;;;;25.92;12.70;;;9.10;99.90;;;;;;5046021;28;20538;-73
2023/10/20 04:04:07;;;;;;;29.73;12.93;;;9.10;99.90;;;;;;5048739;28;21815;-73
2023/10/20 04:06:33;;;;;;;27.55;11.60;;;9.10;99.90;;;;;;5055022;28;21898;-73
2023/10/20 04:08:59;;;;;;;29.33;13.25;;;9.10;99.90;;;;;;5048866;28;20041;-73
2023/10/20 04:11:28;;;;;;;30.25;12.45;;;9.00;99.90;;;;;;5054707;28;20037;-73
2023/10/20 04:13:54;;;;;;;31.20;12.88;;;9.10;99.90;;;;;;5044247;28;20028;-73
2023/10/20 04:16:19;;;;;;;30.35;13.23;;;9.00;99.90;;;;;;5045823;28;20029;-73
2023/10/20 04:18:46;;;;;;;28.73;12.00;;;9.00;99.90;;;;;;5054886;28;20099;-73
2023/10/20 04:21:12;;;;;;;29.13;12.25;;;9.10;99.90;;;;;;5055219;28;20386;-73
2023/10/20 04:23:38;;;;;;;27.10;12.25;;;9.00;99.90;;;;;;5054003;28;20585;-73
2023/10/20 04:26:23;;;;;;;30.45;13.85;;;9.10;99.90;;;;;;5048309;28;20028;-73
2023/10/20 04:29:03;;;;;;;28.25;12.02;;;9.20;99.90;;;;;;5055404;28;20024;-72
2023/10/20 04:45:46;;;;;;;31.08;13.90;;;9.10;99.90;;;;;;5048967;28;20033;-73
2023/10/20 04:56:36;;;;;;;26.60;12.55;;;9.00;99.90;;;;;;5039159;28;20041;-73
2023/10/20 04:59:10;;;;;;;28.83;12.05;;;8.90;99.90;;;;;;5051654;28;20025;-73
2023/10/20 05:01:49;;;;;;;27.25;11.85;;;9.00;99.90;;;;;;5052468;28;20028;-73
2023/10/20 05:04:28;;;;;;;27.25;13.05;;;9.00;99.90;;;;;;5054430;28;20036;-73
2023/10/20 05:07:08;;;;;;;25.77;11.43;;;8.90;99.90;;;;;;5050910;28;20027;-73
2023/10/20 05:09:40;;;;;;;25.13;12.50;;;8.90;99.90;;;;;;5050858;28;20013;-73
2023/10/20 05:12:06;;;;;;;23.42;12.15;;;8.90;99.90;;;;;;5045732;28;20032;-72
2023/10/20 05:14:32;;;;;;;26.02;12.80;;;8.90;99.90;;;;;;5046840;28;20479;-73
2023/10/20 05:16:57;;;;;;;25.92;12.45;;;8.90;99.90;;;;;;5053244;28;20060;-73
2023/10/20 05:19:23;;;;;;;28.42;13.00;;;9.00;99.90;;;;;;5052545;28;20078;-73
2023/10/20 05:21:51;;;;;;;26.90;12.48;;;8.90;99.90;;;;;;5046715;28;20567;-73
2023/10/20 05:24:17;;;;;;;;;;;9.00;99.90;;;;;;5051176;28;20074;-73
2023/10/20 05:26:45;;;;;;;22.60;11.65;;;9.00;99.90;;;;;;5047957;28;19909;-73
2023/10/20 05:29:11;;;;;;;25.73;12.20;;;8.80;99.90;;;;;;5047123;28;20021;-73
2023/10/20 05:31:36;;;;;;;21.15;12.00;;;8.80;99.90;;;;;;5049301;28;20047;-73
2023/10/20 05:34:03;;;;;;;21.50;12.27;;;8.90;99.90;;;;;;5052899;28;20655;-73
2023/10/20 05:36:29;;;;;;;21.98;10.90;;;8.80;99.90;;;;;;5052016;28;20050;-72
2023/10/20 05:38:54;;;;;;;25.42;11.85;;;8.80;99.90;;;;;;5045527;28;20100;-72
2023/10/20 05:41:23;;;;;;;18.77;10.57;;;8.80;99.90;;;;;;5042013;28;20441;-73
2023/10/20 05:43:48;;;;;;;;;;;8.90;99.90;;;;;;5047072;28;20017;-73
2023/10/20 05:46:17;;;;;;;25.83;11.13;;;8.80;99.90;;;;;;5051679;28;19909;-73
2023/10/20 05:48:46;;;;;;;20.63;10.30;;;8.80;99.90;;;;;;5045263;28;20032;-73
2023/10/20 05:51:12;;;;;;;23.17;11.05;;;8.80;99.90;;;;;;5053311;28;20021;-73
2023/10/20 05:53:38;;;;;;;27.48;11.55;;;8.80;99.90;;;;;;5048826;28;20540;-73
2023/10/20 05:56:06;;;;;;;20.70;10.70;;;8.80;99.90;;;;;;5043267;28;20029;-73
2023/10/20 05:58:33;;;;;;;20.05;10.70;;;8.80;99.90;;;;;;5042933;28;20097;-73
2023/10/20 06:01:11;;;;;;;18.65;9.88;;;8.80;99.90;;;;;;5053622;28;20957;-73
2023/10/20 06:03:37;;;;;;;23.55;10.52;;;8.80;99.90;;;;;;5046968;28;20474;-73
2023/10/20 06:06:06;;;;;;;22.17;10.48;;;8.80;99.90;;;;;;5047961;28;20033;-73
2023/10/20 06:08:31;;;;;;;;;;;8.90;99.90;;;;;;5057232;28;20506;-73
2023/10/20 06:11:04;;;;;;;19.50;10.27;;;8.80;99.90;;;;;;5053891;28;19971;-73
2023/10/20 06:13:35;;;;;;;17.10;9.15;;;8.90;99.90;;;;;;5046610;28;20036;-73
2023/10/20 06:16:08;;;;;;;14.70;8.38;;;8.80;99.90;;;;;;5048101;28;20036;-73
2023/10/20 06:18:37;;;;;;;15.88;8.85;;;8.80;99.90;;;;;;5049678;28;20095;-72
2023/10/20 06:21:04;;;;;;;15.23;8.25;;;8.80;99.90;;;;;;5045389;28;20033;-73
2023/10/20 06:23:30;;;;;;;14.15;8.90;;;8.90;99.90;;;;;;5048134;28;20028;-73
2023/10/20 06:25:59;;;;;;;16.25;8.38;;;8.90;99.90;;;;;;5048847;28;20024;-73
2023/10/20 06:28:25;;;;;;;19.42;8.80;;;8.90;99.90;;;;;;5048730;28;20032;-73
2023/10/20 06:30:51;;;;;;;16.50;9.25;;;9.00;99.90;;;;;;5049029;28;20021;-73
2023/10/20 06:33:17;;;;;;;13.18;7.95;;;8.90;99.90;;;;;;5056059;28;20025;-73
2023/10/20 06:35:52;;;;;;;13.35;6.90;;;8.90;99.90;;;;;;5050862;28;20021;-72
2023/10/20 06:38:30;;;;;;;14.50;7.68;;;8.90;99.90;;;;;;5052434;28;20076;-72
2023/10/20 06:40:59;;;;;;;13.90;7.25;;;8.90;99.90;;;;;;5030280;28;20030;-73
2023/10/20 06:43:25;;;;;;;15.45;6.65;;;8.80;99.90;;;;;;5043731;28;20051;-73
2023/10/20 06:45:57;;;;;;;13.75;7.53;;;8.80;99.90;;;;;;5045012;28;20148;-73
2023/10/20 06:48:23;;;;;;;13.80;7.30;;;8.80;99.90;;;;;;5044097;28;20111;-72
2023/10/20 06:50:49;;;;;;;13.93;8.00;;;8.90;99.90;;;;;;5046993;28;20094;-73
2023/10/20 06:53:14;;;;;;;11.23;6.70;;;8.90;99.90;;;;;;5052942;28;20594;-73
2023/10/20 06:55:44;;;;;;;11.23;7.03;;;8.90;99.90;;;;;;5051691;28;20057;-73
2023/10/20 06:58:09;;;;;;;10.50;7.30;;;8.90;99.90;;;;;;5048505;28;20040;-73
2023/10/20 07:00:40;;;;;;;12.82;6.68;;;8.90;99.90;;;;;;5047238;28;20029;-72
2023/10/20 07:03:08;;;;;;;10.88;6.68;;;8.90;99.90;;;;;;5056022;28;20044;-73
2023/10/20 07:05:37;;;;;;;12.93;6.38;;;8.90;99.90;;;;;;5045731;28;20092;-73
2023/10/20 07:08:04;;;;;;;15.32;6.78;;;8.90;99.90;;;;;;5050820;28;20736;-73
2023/10/20 07:10:38;;;;;;;10.27;5.93;;;8.90;99.90;;;;;;5048861;28;20125;-73
2023/10/20 07:13:06;;;;;;;8.95;6.15;;;8.90;99.90;;;;;;5047030;28;20071;-72
2023/10/20 07:15:35;;;;;;;8.27;5.30;;;8.90;99.90;;;;;;5049473;28;20036;-73
2023/10/20 07:18:05;;;;;;;9.77;5.03;;;8.90;99.90;;;;;;5048445;28;20055;-73
2023/10/20 07:20:32;;;;;;;8.60;5.55;;;8.90;99.90;;;;;;5053850;28;20029;-73
2023/10/20 07:22:58;;;;;;;6.60;4.27;;;8.90;99.90;;;;;;5054917;28;20029;-73
2023/10/20 07:25:29;;;;;;;7.40;3.67;;;8.90;99.90;;;;;;5050369;28;20045;-72
2023/10/20 07:27:54;;;;;;;8.05;4.15;;;8.90;99.90;;;;;;5051317;28;20395;-72
2023/10/20 07:30:20;;;;;;;9.75;4.32;;;8.90;99.90;;;;;;5045628;28;20112;-73
2023/10/20 07:32:46;;;;;;;6.18;3.53;;;9.00;99.90;;;;;;5053781;28;20028;-73
2023/10/20 07:35:12;;;;;;;6.88;3.47;;;9.00;99.90;;;;;;5046282;28;20025;-72
2023/10/20 07:37:40;;;;;;;4.80;2.78;;;9.00;99.90;;;;;;5059183;28;20466;-73
2023/10/20 07:40:10;;;;;;;5.22;3.10;;;9.00;99.90;;;;;;5047217;28;20029;-74
2023/10/20 07:42:38;;;;;;;7.28;3.30;;;9.00;99.90;;;;;;5049758;28;20029;-73
2023/10/20 07:45:07;;;;;;;4.60;3.10;;;9.00;99.90;;;;;;5045708;28;20029;-73
2023/10/20 07:47:34;;;;;;;5.60;2.63;;;8.90;99.90;;;;;;5045092;28;20036;-73
2023/10/20 07:50:00;;;;;;;7.70;3.13;;;9.00;99.90;;;;;;5051234;28;20033;-73
2023/10/20 07:52:26;;;;;;;4.78;2.90;;;8.90;99.90;;;;;;5051287;28;20027;-73
2023/10/20 07:54:52;;;;;;;3.83;2.40;;;8.90;99.90;;;;;;5045397;28;20402;-73
2023/10/20 07:57:19;;;;;;;4.95;2.70;;;8.90;99.90;;;;;;5053498;28;20021;-73
2023/10/20 07:59:46;;;;;;;5.80;2.28;;;8.90;99.90;;;;;;5046257;28;20013;-73
2023/10/20 08:02:11;;;;;;;4.03;2.33;;;8.90;99.90;;;;;;5052017;28;20372;-73
2023/10/20 08:04:37;;;;;;;7.25;2.40;;;8.90;99.90;;;;;;5052723;28;20490;-73
2023/10/20 08:07:03;;;;;;;2.60;1.80;;;8.90;99.90;;;;;;5050007;28;20029;-73
2023/10/20 08:09:32;;;;;;;4.85;1.90;;;8.90;99.90;;;;;;5050305;28;20021;-72
2023/10/20 08:11:59;;;;;;;2.70;1.75;;;8.90;99.90;;;;;;5052802;28;20404;-73
2023/10/20 08:14:27;;;;;;;4.28;2.00;;;8.80;99.90;;;;;;5046500;28;20084;-72
2023/10/20 08:16:53;;;;;;;2.80;1.70;;;8.80;99.90;;;;;;5046353;28;20071;-73
2023/10/20 08:19:18;;;;;;;4.20;2.00;;;8.90;99.90;;;;;;5056995;28;20482;-73
2023/10/20 08:21:44;;;;;;;4.05;1.90;;;8.90;99.90;;;;;;5051247;28;20036;-72
2023/10/20 08:24:10;;;;;;;2.60;1.38;;;8.90;99.90;;;;;;5053216;28;20052;-72
2023/10/20 08:26:36;;;;;;;4.15;1.63;;;8.80;99.90;;;;;;5048257;28;20060;-73
2023/10/20 08:29:02;;;;;;;2.33;1.15;;;8.90;99.90;;;;;;5049720;28;20471;-72
2023/10/20 08:31:31;;;;;;;2.90;1.48;;;8.90;99.90;;;;;;5051619;28;20453;-73
2023/10/20 08:34:00;;;;;;;2.85;1.38;;;8.90;99.90;;;;;;5051395;28;20287;-73
2023/10/20 08:36:26;;;;;;;2.92;1.60;;;8.90;99.90;;;;;;5040459;28;20047;-73
2023/10/20 08:38:52;;;;;;;3.28;1.27;;;8.90;99.90;;;;;;5053639;28;20024;-72
2023/10/20 08:41:20;;;;;;;2.13;1.55;;;8.90;99.90;;;;;;5050952;28;20025;-72
2023/10/20 08:43:46;;;;;;;3.85;1.30;;;8.80;99.90;;;;;;5053173;28;20467;-72
2023/10/20 08:46:13;;;;;;;2.63;1.15;;;8.90;99.90;;;;;;5062381;28;20379;-73
2023/10/20 08:48:42;;;;;;;2.75;1.85;;;8.80;99.90;;;;;;5053002;28;20064;-73
2023/10/20 08:51:10;;;;;;;2.90;1.40;;;8.90;99.90;;;;;;5050460;28;20064;-73
2023/10/20 08:53:37;;;;;;;2.58;1.60;;;8.80;99.90;;;;;;5044836;28;20111;-72
2023/10/20 08:56:04;;;;;;;3.22;1.40;;;8.90;99.90;;;;;;5055917;28;20108;-73
2023/10/20 08:58:30;;;;;;;2.50;1.45;;;8.80;99.90;;;;;;5046455;28;21967;-72
2023/10/20 09:00:57;;;;;;;1.60;1.17;;;8.90;99.90;;;;;;5047741;28;20037;-72
2023/10/20 09:03:25;;;;;;;1.47;1.10;;;8.90;99.90;;;;;;5043907;28;20386;-73
2023/10/20 09:06:14;;;;;;;1.55;1.00;;;8.80;99.90;;;;;;5051437;28;21556;-73
2023/10/20 09:08:41;;;;;;;1.80;1.20;;;8.90;99.90;;;;;;5046997;28;20025;-72
2023/10/20 09:11:10;;;;;;;2.30;1.10;;;8.90;99.90;;;;;;5046995;28;20033;-73
2023/10/20 09:13:39;;;;;;;2.60;0.95;;;8.90;99.90;;;;;;5048277;28;20273;-73
2023/10/20 09:16:09;;;;;;;1.45;0.95;;;8.80;99.90;;;;;;5046785;28;20112;-73
2023/10/20 09:18:49;;;;;;;5.05;1.40;;;8.80;99.90;;;;;;5049178;28;20103;-73
2023/10/20 09:21:16;;;;;;;1.85;1.00;;;8.80;99.90;;;;;;5043535;28;20036;-73
2023/10/20 09:23:57;;;;;;;2.72;1.00;;;8.90;99.90;;;;;;5058992;28;20036;-73
2023/10/20 09:26:26;;;;;;;1.58;0.93;;;8.80;99.90;;;;;;5051608;28;20024;-73
2023/10/20 09:28:54;;;;;;;2.45;0.90;;;8.80;99.90;;;;;;5049112;28;20108;-74
2023/10/20 09:31:21;;;;;;;2.25;1.20;;;8.80;99.90;;;;;;5057142;28;20148;-73
2023/10/20 09:33:50;;;;;;;4.63;1.23;;;8.70;99.90;;;;;;5053336;28;20043;-73
2023/10/20 09:36:17;;;;;;;1.75;0.82;;;8.80;99.90;;;;;;5050251;28;20071;-73
2023/10/20 09:38:55;;;;;;;1.95;1.13;;;8.80;99.90;;;;;;5049758;28;20020;-73
2023/10/20 09:41:23;;;;;;;2.20;1.08;;;8.80;99.90;;;;;;5052982;28;20051;-74
2023/10/20 09:43:52;;;;;;;;;;;8.80;99.90;;;;;;5046210;28;20021;-73
2023/10/20 09:46:26;;;;;;;3.03;0.95;;;8.80;99.90;;;;;;5049341;28;19908;-72
2023/10/20 09:48:55;;;;;;;3.95;1.27;;;8.70;99.90;;;;;;5045786;28;20108;-73
2023/10/20 09:51:21;;;;;;;2.50;1.20;;;8.70;99.90;;;;;;5046121;28;20028;-73
2023/10/20 09:53:50;;;;;;;1.80;1.23;;;8.70;99.90;;;;;;5056480;28;20532;-73
2023/10/20 09:56:16;;;;;;;1.52;1.10;;;8.70;99.90;;;;;;5055310;28;20047;-73
2023/10/20 09:58:42;;;;;;;1.60;0.90;;;8.60;99.90;;;;;;5047940;28;20021;-73
2023/10/20 10:01:12;;;;;;;2.05;0.93;;;8.60;99.90;;;;;;5048875;28;20029;-72
2023/10/20 10:03:39;;;;;;;3.33;1.30;;;8.60;99.90;;;;;;5050135;28;20021;-72
2023/10/20 10:06:19;;;;;;;1.95;1.20;;;8.60;99.90;;;;;;5045924;28;20086;-71
2023/10/20 10:08:45;;;;;;;2.95;1.38;;;8.60;99.90;;;;;;5047959;28;20029;-72
2023/10/20 10:11:41;;;;;;;1.98;1.20;;;8.60;99.90;;;;;;5052179;28;20439;-72
2023/10/20 10:14:07;;;;;;;4.38;2.72;;;8.60;99.90;;;;;;5048195;28;20041;-73
2023/10/20 10:16:48;;;;;;;2.42;1.20;;;8.60;99.90;;;;;;5049871;28;20029;-72
2023/10/20 10:19:21;;;;;;;2.53;1.30;;;8.70;99.90;;;;;;5055471;28;20026;-73
2023/10/20 10:21:53;;;;;;;3.35;1.20;;;8.70;99.90;;;;;;5056105;28;20111;-73
2023/10/20 10:24:21;;;;;;;2.20;1.10;;;8.60;99.90;;;;;;5056610;28;20025;-73
2023/10/20 10:26:59;;;;;;;2.35;1.33;;;8.70;99.90;;;;;;5053138;28;20060;-73
2023/10/20 10:32:44;;;;;;;1.27;1.00;;;8.80;99.90;;;;;;5042430;28;20052;-70
2023/10/20 10:35:16;;;;;;;2.30;1.13;;;8.70;99.90;;;;;;5045420;28;20493;-70
2023/10/20 10:37:41;;;;;;;1.30;1.08;;;8.70;99.90;;;;;;5042886;28;20060;-71
2023/10/20 10:40:12;;;;;;;2.63;1.20;;;8.70;99.90;;;;;;5046833;28;20071;-70
2023/10/20 10:42:51;;;;;;;1.60;1.00;;;8.60;99.90;;;;;;5048219;28;20470;-70
2023/10/20 10:45:24;;;;;;;2.97;1.38;;;8.70;99.90;;;;;;5043849;28;20040;-69
2023/10/20 10:48:02;;;;;;;3.83;1.17;;;8.70;99.90;;;;;;5043622;28;20106;-69
2023/10/20 10:50:27;;;;;;;1.38;1.10;;;8.70;99.90;;;;;;5043301;28;20043;-69
2023/10/20 10:52:53;;;;;;;3.33;1.25;;;8.70;99.90;;;;;;5026649;28;20040;-70
2023/10/20 10:55:19;;;;;;;1.98;1.00;;;8.70;99.90;;;;;;5041081;28;20033;-69
2023/10/20 10:57:44;;;;;;;3.28;1.20;;;8.70;99.90;;;;;;5044512;28;20025;-69
2023/10/20 11:00:15;;;;;;;1.77;1.30;;;8.70;99.90;;;;;;5046894;28;20403;-70
2023/10/20 11:02:42;;;;;;;2.95;1.33;;;8.70;99.90;;;;;;5045608;28;20025;-69
2023/10/20 11:05:11;;;;;;;2.90;1.35;;;8.70;99.90;;;;;;5043633;28;20030;-74
2023/10/20 11:07:40;;;;;;;3.90;1.23;;;8.60;99.90;;;;;;5047123;28;20033;-69
2023/10/20 11:10:06;;;;;;;1.50;0.88;;;8.70;99.90;;;;;;5049206;28;20032;-69
2023/10/20 11:12:35;;;;;;;1.30;1.08;;;8.60;99.90;;;;;;5047798;28;20576;-70
2023/10/20 11:15:02;;;;;;;22.90;1.45;;;8.60;99.90;;;;;;5050697;28;20120;-69
2023/10/20 11:17:30;;;;;;;2.03;1.10;;;8.60;99.90;;;;;;5045894;28;20054;-69
2023/10/20 11:19:56;;;;;;;4.75;1.90;;;8.50;99.90;;;;;;5047664;28;20437;-70
2023/10/20 11:22:22;;;;;;;1.15;0.82;;;8.60;99.90;;;;;;5046796;28;20696;-70
2023/10/20 11:24:54;;;;;;;1.95;1.00;;;8.50;99.90;;;;;;5047938;28;20032;-70
2023/10/20 11:27:23;;;;;;;0.90;0.70;;;8.50;99.90;;;;;;5047958;28;20032;-70
2023/10/20 11:29:52;;;;;;;2.65;0.70;;;8.50;99.90;;;;;;5052422;28;20052;-70
2023/10/20 11:32:18;;;;;;;1.00;0.68;;;8.50;99.90;;;;;;5067184;28;20032;-69
2023/10/20 11:34:44;;;;;;;3.35;1.08;;;8.50;99.90;;;;;;5063873;28;20383;-70
2023/10/20 11:37:11;;;;;;;1.73;0.80;;;8.60;99.90;;;;;;5075951;28;20025;-69
2023/10/20 11:39:37;;;;;;;1.13;0.80;;;8.50;99.90;;;;;;5075839;28;20025;-69
2023/10/20 11:42:06;;;;;;;0.90;0.80;;;8.40;99.90;;;;;;5066956;28;21234;-70
2023/10/20 11:44:31;;;;;;;1.70;0.80;;;8.40;99.90;;;;;;5069862;28;20031;-69
2023/10/20 11:46:58;;;;;;;0.90;0.73;;;8.50;99.90;;;;;;5074401;28;20037;-69
2023/10/20 11:49:24;;;;;;;0.80;0.75;;;8.50;99.90;;;;;;5068160;28;20028;-69
2023/10/20 11:51:51;;;;;;;2.35;1.00;;;8.50;99.90;;;;;;5049296;28;20154;-69
2023/10/20 11:54:19;;;;;;;1.30;0.90;;;8.50;99.90;;;;;;5066262;28;20024;-69
2023/10/20 11:56:45;;;;;;;1.27;0.60;;;8.50;99.90;;;;;;5065824;28;20367;-70
2023/10/20 11:59:14;;;;;;;1.00;0.82;;;8.60;99.90;;;;;;5067289;28;20040;-69
2023/10/20 12:01:40;;;;;;;1.85;1.10;;;8.70;99.90;;;;;;5063797;28;20016;-69
2023/10/20 12:04:11;;;;;;;1.35;0.90;;;8.60;99.90;;;;;;5068916;28;20551;-69
2023/10/20 12:06:37;;;;;;;3.03;0.80;;;8.60;99.90;;;;;;5065979;28;20032;-69
2023/10/20 12:09:08;;;;;;;0.80;0.60;;;8.50;99.90;;;;;;5072873;28;20032;-70
2023/10/20 12:11:39;;;;;;;1.75;0.80;;;8.50;99.90;;;;;;5071005;28;20513;-69
2023/10/20 12:14:05;;;;;;;2.08;0.98;;;8.50;99.90;;;;;;5069743;28;20085;-69
2023/10/20 12:16:31;;;;;;;1.02;0.70;;;8.50;99.90;;;;;;5068619;28;20107;-69
2023/10/20 12:19:06;;;;;;;1.23;0.60;;;8.50;99.90;;;;;;5073568;28;20025;-69
2023/10/20 12:21:31;;;;;;;1.27;0.70;;;8.50;99.90;;;;;;5069159;28;20066;-70
2023/10/20 12:23:57;;;;;;;1.67;1.05;;;8.40;99.90;;;;;;5048395;28;20491;-70
2023/10/20 12:26:24;;;;;;;2.20;0.90;;;8.40;99.90;;;;;;5068282;28;20104;-69
2023/10/20 12:28:52;;;;;;;2.05;0.80;;;8.40;99.90;;;;;;5063394;28;20576;-70
2023/10/20 12:31:22;;;;;;;1.15;0.75;;;8.40;99.90;;;;;;5067086;28;20051;-69
2023/10/20 12:33:48;;;;;;;1.27;0.68;;;8.50;99.90;;;;;;5066694;28;20785;-70
2023/10/20 12:36:16;;;;;;;1.33;0.82;;;8.50;99.90;;;;;;5067608;28;20035;-69
2023/10/20 12:38:44;;;;;;;;;;;8.50;99.90;;;;;;5065835;28;20024;-69
2023/10/20 12:41:11;;;;;;;1.48;0.75;;;8.50;99.90;;;;;;5066267;28;19914;-69
2023/10/20 12:43:37;;;;;;;1.52;0.57;;;8.50;99.90;;;;;;5069366;28;20430;-70
2023/10/20 12:46:05;;;;;;;0.60;0.60;;;8.40;99.90;;;;;;5069861;28;20164;-69
2023/10/20 12:48:31;;;;;;;;;;;8.40;99.90;;;;;;5069775;28;20372;-69
2023/10/20 12:50:59;;;;;;;0.65;0.60;;;8.50;99.90;;;;;;5066804;28;19919;-69
2023/10/20 12:53:25;;;;;;;1.65;0.70;;;8.40;99.90;;;;;;5069642;28;20040;-69
2023/10/20 12:55:53;;;;;;;0.70;0.60;;;8.30;99.90;;;;;;5069483;28;20054;-69
2023/10/20 12:58:18;;;;;;;0.95;0.85;;;8.30;99.90;;;;;;5064609;28;20645;-70
2023/10/20 13:00:45;;;;;;;1.63;0.70;;;8.30;99.90;;;;;;5065792;28;20097;-69
2023/10/20 13:03:10;;;;;;;0.93;0.70;;;8.30;99.90;;;;;;5048405;28;20045;-69
2023/10/20 13:05:36;;;;;;;1.08;0.55;;;8.30;99.90;;;;;;5071385;28;20059;-69
2023/10/20 13:08:01;;;;;;;0.98;0.60;;;8.20;99.90;;;;;;5050479;28;20119;-68
2023/10/20 13:10:30;;;;;;;2.25;0.75;;;8.30;99.90;;;;;;5063721;28;20036;-69
2023/10/20 13:12:55;;;;;;;1.90;0.90;;;8.20;99.90;;;;;;5064424;28;20064;-70
2023/10/20 13:15:21;;;;;;;1.20;0.88;;;8.20;99.90;;;;;;5065841;28;20066;-70
2023/10/20 13:17:50;;;;;;;1.00;0.60;;;8.20;99.90;;;;;;5063207;28;22046;-69
2023/10/20 13:20:16;;;;;;;;;;;8.20;99.90;;;;;;5063175;28;20103;-69